Time;durP1;ratioP1;P1;durP2;ratioP2;P2;SDS_P1;SDS_P2;PMS_P1;PMS_P2;Temp;Humidity;BMP_temperature;BMP_pressure;BME280_temperature;BME280_humidity;BME280_pressure;Samples;Min_cycle;Max_cycle;Signal;HPM_P1;HPM_P2
2022/12/29 00:01:49;;;;;;;2.50;1.90;;;11.10;91.40;;;;;;9175190;19;20052;-70
2022/12/29 00:04:52;;;;;;;4.80;2.20;;;11.10;91.40;;;;;;9179002;19;20488;-70
2022/12/29 00:07:56;;;;;;;2.90;2.08;;;11.10;91.40;;;;;;9181504;19;20045;-71
2022/12/29 00:11:02;;;;;;;2.35;2.08;;;11.20;91.40;;;;;;9182775;19;20019;-71
2022/12/29 00:17:29;;;;;;;4.75;2.15;;;11.20;91.40;;;;;;9180749;19;20014;-69
2022/12/29 00:37:05;;;;;;;2.40;1.67;;;11.30;91.30;;;;;;9179691;19;20019;-71
2022/12/29 00:46:47;;;;;;;2.47;1.85;;;11.40;91.30;;;;;;9184090;19;20579;-70
2022/12/29 00:49:51;;;;;;;3.47;2.20;;;11.40;91.30;;;;;;9182793;19;20030;-70
2022/12/29 00:52:54;;;;;;;2.50;2.03;;;11.40;91.30;;;;;;9180092;19;20015;-71
2022/12/29 00:55:58;;;;;;;6.18;2.15;;;11.50;91.30;;;;;;9182093;19;20018;-71
2022/12/29 00:59:06;;;;;;;4.85;2.35;;;11.50;91.30;;;;;;9183791;19;20018;-70
2022/12/29 01:02:11;;;;;;;2.60;1.73;;;11.50;91.30;;;;;;9183259;19;20018;-69
2022/12/29 01:05:15;;;;;;;1.58;1.40;;;11.50;91.30;;;;;;9180711;19;20506;-70
2022/12/29 01:08:21;;;;;;;2.33;1.85;;;11.50;91.30;;;;;;9183585;19;20368;-70
2022/12/29 01:11:23;;;;;;;2.55;1.75;;;11.50;91.30;;;;;;9179465;19;20345;-70
2022/12/29 01:14:29;;;;;;;2.45;1.88;;;11.60;91.30;;;;;;9178579;19;20015;-70
2022/12/29 01:17:34;;;;;;;3.85;1.90;;;11.50;91.20;;;;;;9180053;19;20345;-69
2022/12/29 01:20:37;;;;;;;2.90;2.00;;;11.60;91.60;;;;;;9180146;19;20027;-69
2022/12/29 01:23:41;;;;;;;2.38;1.67;;;11.60;91.20;;;;;;9176837;19;20033;-71
2022/12/29 01:26:46;;;;;;;2.85;1.92;;;11.60;91.20;;;;;;9181891;19;20019;-69
2022/12/29 01:29:51;;;;;;;1.90;1.45;;;11.60;91.20;;;;;;9181159;19;20492;-70
2022/12/29 01:32:55;;;;;;;2.20;1.77;;;11.60;91.20;;;;;;9180401;19;20382;-71
2022/12/29 01:36:02;;;;;;;2.35;1.80;;;11.60;91.20;;;;;;9181669;19;20371;-70
2022/12/29 01:39:06;;;;;;;5.57;1.52;;;11.60;91.20;;;;;;9179112;19;20040;-70
2022/12/29 01:42:16;;;;;;;2.13;1.73;;;11.60;91.20;;;;;;9180855;19;20014;-70
2022/12/29 01:45:23;;;;;;;1.55;1.35;;;11.60;91.20;;;;;;9181266;19;20487;-70
2022/12/29 01:48:27;;;;;;;2.33;1.50;;;11.60;91.20;;;;;;9180571;19;20027;-70
2022/12/29 01:51:34;;;;;;;3.42;1.40;;;11.60;91.20;;;;;;9181377;19;20018;-70
2022/12/29 01:54:42;;;;;;;1.75;1.20;;;11.60;91.20;;;;;;9180790;19;20011;-70
2022/12/29 01:57:50;;;;;;;5.55;1.45;;;11.60;91.20;;;;;;9180813;19;20023;-70
2022/12/29 02:00:56;;;;;;;1.65;1.15;;;11.60;91.20;;;;;;9180385;19;20018;-70
2022/12/29 02:04:01;;;;;;;2.38;1.20;;;11.60;91.10;;;;;;9172648;19;20019;-70
2022/12/29 02:07:09;;;;;;;1.35;1.02;;;11.50;91.10;;;;;;9177849;19;20025;-69
2022/12/29 02:10:13;;;;;;;1.15;0.95;;;11.60;91.20;;;;;;9176294;19;20381;-69
2022/12/29 02:13:19;;;;;;;1.70;0.88;;;11.60;91.10;;;;;;9178672;19;20010;-70
2022/12/29 02:16:46;;;;;;;2.05;1.00;;;11.50;91.10;;;;;;9178565;19;20344;-71
2022/12/29 02:20:23;;;;;;;2.67;0.70;;;11.60;91.20;;;;;;9177874;19;20494;-69
2022/12/29 02:23:54;;;;;;;1.70;1.00;;;11.50;91.10;;;;;;9175834;19;20023;-71
2022/12/29 02:27:16;;;;;;;1.00;0.80;;;11.50;91.10;;;;;;9179589;19;20019;-71
2022/12/29 02:31:02;;;;;;;1.85;0.70;;;11.50;91.10;;;;;;9177370;19;20010;-70
2022/12/29 02:34:19;;;;;;;1.88;0.73;;;11.50;91.10;;;;;;9176565;19;20479;-70
2022/12/29 02:37:27;;;;;;;1.10;1.00;;;11.50;91.10;;;;;;9176956;19;20023;-70
2022/12/29 02:40:39;;;;;;;2.70;1.25;;;11.40;91.10;;;;;;9179660;19;20018;-70
2022/12/29 02:43:58;;;;;;;2.75;1.02;;;11.40;91.10;;;;;;9173996;19;20014;-69
2022/12/29 02:47:08;;;;;;;2.40;1.20;;;11.40;91.20;;;;;;9175834;19;20134;-69
2022/12/29 02:50:19;;;;;;;1.10;1.00;;;11.40;91.20;;;;;;9177314;19;20019;-70
2022/12/29 02:56:42;;;;;;;1.85;1.40;;;11.50;91.20;;;;;;9177921;19;20022;-69
2022/12/29 02:59:46;;;;;;;;;;;11.50;91.30;;;;;;9178263;19;20025;-70
2022/12/29 03:03:18;;;;;;;2.17;1.00;;;11.50;91.30;;;;;;9174083;19;20263;-70
2022/12/29 03:06:34;;;;;;;1.60;1.30;;;11.50;91.30;;;;;;9174776;19;20014;-70
2022/12/29 03:09:45;;;;;;;3.08;1.40;;;11.50;91.30;;;;;;9174046;19;20086;-69
2022/12/29 03:16:20;;;;;;;1.10;0.90;;;11.50;91.30;;;;;;9177822;19;20467;-69
2022/12/29 03:19:30;;;;;;;3.22;1.85;;;11.50;91.30;;;;;;9175177;19;20018;-69
2022/12/29 03:22:41;;;;;;;1.40;1.20;;;11.50;91.30;;;;;;9175303;19;20026;-71
2022/12/29 03:25:52;;;;;;;3.15;1.00;;;11.50;91.30;;;;;;9175718;19;20103;-69
2022/12/29 03:28:58;;;;;;;5.03;0.90;;;11.50;91.30;;;;;;9176984;19;20040;-70
2022/12/29 03:32:07;;;;;;;1.83;0.77;;;11.50;91.30;;;;;;9176653;19;20474;-68
2022/12/29 03:35:14;;;;;;;0.82;0.52;;;11.50;91.20;;;;;;9175236;19;20014;-69
2022/12/29 03:38:25;;;;;;;1.55;0.43;;;11.60;91.20;;;;;;9176273;19;20014;-69
2022/12/29 03:41:35;;;;;;;2.85;1.00;;;11.50;91.20;;;;;;9176208;19;20010;-70
2022/12/29 03:44:42;;;;;;;4.38;0.70;;;11.50;91.20;;;;;;9172288;19;20023;-69
2022/12/29 03:47:47;;;;;;;3.22;0.50;;;11.50;91.20;;;;;;9174317;19;20025;-69
2022/12/29 03:50:53;;;;;;;1.48;0.47;;;11.50;91.20;;;;;;9175884;19;20086;-70
2022/12/29 03:53:59;;;;;;;3.22;0.73;;;11.50;91.20;;;;;;9175855;19;20014;-70
2022/12/29 03:57:02;;;;;;;3.15;0.68;;;11.40;91.20;;;;;;9177040;19;20018;-69
2022/12/29 04:00:19;;;;;;;2.60;1.02;;;11.40;91.20;;;;;;9173307;19;20026;-69
2022/12/29 04:03:26;;;;;;;3.60;1.08;;;11.40;91.20;;;;;;9166885;19;20022;-69
2022/12/29 04:06:29;;;;;;;;;;;11.40;91.20;;;;;;9175246;19;20014;-69
2022/12/29 04:09:42;;;;;;;3.67;1.00;;;11.40;91.20;;;;;;9174594;19;20004;-69
2022/12/29 04:12:50;;;;;;;3.72;0.93;;;11.40;91.20;;;;;;9173223;19;20040;-71
2022/12/29 04:15:54;;;;;;;2.45;1.02;;;11.30;91.20;;;;;;9175118;19;20332;-67
2022/12/29 04:18:57;;;;;;;6.22;0.70;;;11.40;91.20;;;;;;9174329;19;20677;-69
2022/12/29 04:22:02;;;;;;;5.13;1.00;;;11.40;91.20;;;;;;9173612;19;20508;-69
2022/12/29 04:25:09;;;;;;;2.65;1.00;;;11.30;91.20;;;;;;9175171;19;20011;-70
2022/12/29 04:28:14;;;;;;;2.30;0.88;;;11.30;91.20;;;;;;9174456;19;20010;-71
2022/12/29 04:31:31;;;;;;;3.47;0.85;;;11.40;91.20;;;;;;9176303;19;20476;-68
2022/12/29 04:34:35;;;;;;;3.42;0.98;;;11.30;91.20;;;;;;9176928;19;20015;-68
2022/12/29 04:37:39;;;;;;;2.67;0.90;;;11.30;91.20;;;;;;9176897;19;20520;-70
2022/12/29 04:40:46;;;;;;;2.88;0.93;;;11.30;91.20;;;;;;9177017;19;20541;-68
2022/12/29 04:43:50;;;;;;;2.47;1.15;;;11.30;91.20;;;;;;9171751;19;20015;-69
2022/12/29 04:47:15;;;;;;;4.43;1.00;;;11.30;91.20;;;;;;9174362;19;20006;-68
2022/12/29 04:50:44;;;;;;;3.25;1.00;;;11.30;91.20;;;;;;9181656;19;20014;-68
2022/12/29 04:53:53;;;;;;;2.13;0.70;;;11.40;91.20;;;;;;9181228;19;20019;-69
2022/12/29 04:56:59;;;;;;;4.30;1.05;;;11.30;91.20;;;;;;9182064;19;20403;-68
2022/12/29 05:00:02;;;;;;;7.18;1.15;;;11.30;91.20;;;;;;9181393;19;20026;-70
2022/12/29 05:03:06;;;;;;;6.05;1.17;;;11.30;91.20;;;;;;9179041;19;20010;-70
2022/12/29 05:06:12;;;;;;;2.25;0.80;;;11.30;91.20;;;;;;9180935;19;20025;-69
2022/12/29 05:09:16;;;;;;;5.70;0.98;;;11.30;91.20;;;;;;9182699;19;20015;-69
2022/12/29 05:12:23;;;;;;;5.88;0.80;;;11.30;91.20;;;;;;9181379;19;20014;-70
2022/12/29 05:15:35;;;;;;;5.77;1.03;;;11.40;91.20;;;;;;9181255;19;20031;-70
2022/12/29 05:18:38;;;;;;;2.55;1.08;;;11.30;91.20;;;;;;9182522;19;20014;-70
2022/12/29 05:21:44;;;;;;;3.03;0.95;;;11.40;91.20;;;;;;9180597;19;20709;-68
2022/12/29 05:24:48;;;;;;;5.65;0.88;;;11.40;91.20;;;;;;9178355;19;20476;-69
2022/12/29 05:27:55;;;;;;;3.90;0.77;;;11.40;91.10;;;;;;9180480;19;20041;-69
2022/12/29 05:31:15;;;;;;;6.50;0.80;;;11.40;91.10;;;;;;9180890;19;20018;-70
2022/12/29 05:34:20;;;;;;;3.28;1.02;;;11.40;91.10;;;;;;9179829;19;20010;-70
2022/12/29 05:37:24;;;;;;;;;;;11.40;91.10;;;;;;9181093;19;20018;-69
2022/12/29 05:40:27;;;;;;;2.85;0.95;;;11.40;91.10;;;;;;9181807;19;19945;-70
2022/12/29 05:43:37;;;;;;;1.65;0.60;;;11.40;91.10;;;;;;9178058;19;20471;-69
2022/12/29 05:46:50;;;;;;;3.72;1.02;;;11.40;91.10;;;;;;9179902;19;20533;-70
2022/12/29 05:50:18;;;;;;;3.53;0.90;;;11.40;91.10;;;;;;9179423;19;20006;-70
2022/12/29 05:53:44;;;;;;;2.85;0.80;;;11.40;91.00;;;;;;9179119;19;20402;-70
2022/12/29 05:56:48;;;;;;;1.70;0.82;;;11.40;91.00;;;;;;9179320;19;20032;-69
2022/12/29 05:59:54;;;;;;;;;;;11.40;91.00;;;;;;9178256;19;20019;-68
2022/12/29 06:02:58;;;;;;;7.20;1.23;;;11.40;91.00;;;;;;9176933;19;19926;-70
2022/12/29 06:06:03;;;;;;;9.02;1.30;;;11.40;90.90;;;;;;9174663;19;20017;-69
2022/12/29 06:09:06;;;;;;;;;;;11.30;90.90;;;;;;9179754;19;20018;-69
2022/12/29 06:12:10;;;;;;;2.80;1.05;;;11.30;90.90;;;;;;9179403;19;19926;-69
2022/12/29 06:15:18;;;;;;;10.35;1.10;;;11.30;90.90;;;;;;9178600;19;20516;-69
2022/12/29 06:18:24;;;;;;;6.85;1.15;;;11.30;90.90;;;;;;9177985;19;20529;-70
2022/12/29 06:21:28;;;;;;;7.82;1.30;;;11.30;90.80;;;;;;9178480;19;20019;-70
2022/12/29 06:24:32;;;;;;;10.75;1.17;;;11.20;90.80;;;;;;9175330;19;20019;-69
2022/12/29 06:27:36;;;;;;;10.18;1.40;;;11.20;90.70;;;;;;9177279;19;20013;-71
2022/12/29 06:30:41;;;;;;;8.45;1.40;;;11.20;90.70;;;;;;9178748;19;20054;-71
2022/12/29 06:33:45;;;;;;;7.65;1.33;;;11.20;90.70;;;;;;9177802;19;20364;-70
2022/12/29 06:36:53;;;;;;;8.32;1.25;;;11.20;90.70;;;;;;9178647;19;20026;-69
2022/12/29 06:39:57;;;;;;;4.53;1.15;;;11.20;90.60;;;;;;9179331;19;20405;-69
2022/12/29 06:43:05;;;;;;;6.13;1.25;;;11.10;90.60;;;;;;9178339;19;20018;-69
2022/12/29 06:46:30;;;;;;;8.77;1.55;;;11.10;90.50;;;;;;9177605;19;20011;-69
2022/12/29 06:49:34;;;;;;;3.10;0.75;;;11.10;90.50;;;;;;9175945;19;20462;-70
2022/12/29 06:52:38;;;;;;;4.20;1.30;;;11.10;90.50;;;;;;9179583;19;20018;-70
2022/12/29 06:55:43;;;;;;;8.15;1.23;;;11.00;90.50;;;;;;9178368;19;20057;-70
2022/12/29 06:58:46;;;;;;;5.88;1.15;;;11.00;90.50;;;;;;9179624;19;20014;-69
2022/12/29 07:01:52;;;;;;;7.13;1.33;;;11.00;90.50;;;;;;9177947;19;20021;-70
2022/12/29 07:04:56;;;;;;;3.38;1.17;;;11.00;90.50;;;;;;9168485;19;20035;-70
2022/12/29 07:08:00;;;;;;;7.90;1.13;;;10.90;90.50;;;;;;9177030;19;20476;-70
2022/12/29 07:11:04;;;;;;;3.67;1.17;;;10.90;90.60;;;;;;9176526;19;20033;-68
2022/12/29 07:14:08;;;;;;;;;;;10.90;90.50;;;;;;9179018;19;20022;-69
2022/12/29 07:17:13;;;;;;;5.10;1.13;;;10.90;90.60;;;;;;9178806;19;19922;-71
2022/12/29 07:20:17;;;;;;;5.07;0.90;;;10.90;90.60;;;;;;9177999;19;20433;-69
2022/12/29 07:23:29;;;;;;;5.40;1.15;;;10.90;90.60;;;;;;9176142;19;20022;-70
2022/12/29 07:26:33;;;;;;;8.35;1.48;;;10.80;90.50;;;;;;9178616;19;20510;-69
2022/12/29 07:29:40;;;;;;;9.20;1.52;;;10.80;90.50;;;;;;9176001;19;20053;-70
2022/12/29 07:32:45;;;;;;;;;;;10.80;90.50;;;;;;9178427;19;20432;-69
2022/12/29 07:35:49;;;;;;;5.90;1.20;;;10.80;90.60;;;;;;9175414;19;19967;-68
2022/12/29 07:38:53;;;;;;;7.05;1.25;;;10.80;90.50;;;;;;9177757;19;20110;-69
2022/12/29 07:41:56;;;;;;;5.72;1.23;;;10.80;90.50;;;;;;9176744;19;20033;-71
2022/12/29 07:45:14;;;;;;;9.93;1.48;;;10.70;90.50;;;;;;9172054;19;20014;-70
2022/12/29 07:48:46;;;;;;;6.47;1.60;;;10.70;90.50;;;;;;9176196;19;20035;-69
2022/12/29 07:51:50;;;;;;;9.25;1.83;;;10.80;90.50;;;;;;9176845;19;20035;-70
2022/12/29 07:54:53;;;;;;;6.50;1.25;;;10.70;90.50;;;;;;9176918;19;20064;-71
2022/12/29 07:57:58;;;;;;;9.00;1.52;;;10.70;90.50;;;;;;9177089;19;20015;-71
2022/12/29 08:01:01;;;;;;;10.35;1.05;;;10.70;90.50;;;;;;9176732;19;20388;-68
2022/12/29 08:04:07;;;;;;;5.70;1.15;;;10.60;90.50;;;;;;9169593;19;20476;-71
2022/12/29 08:07:11;;;;;;;7.55;1.85;;;10.60;90.40;;;;;;9178331;19;20038;-68
2022/12/29 08:10:16;;;;;;;6.68;1.95;;;10.60;90.40;;;;;;9178380;19;20598;-68
2022/12/29 08:13:20;;;;;;;5.60;1.67;;;10.60;90.40;;;;;;9179204;19;20017;-71
2022/12/29 08:16:24;;;;;;;8.43;0.80;;;10.60;90.40;;;;;;9180884;19;20032;-69
2022/12/29 08:19:29;;;;;;;;;;;10.60;90.30;;;;;;9175345;19;20377;-70
2022/12/29 08:22:33;;;;;;;8.63;1.23;;;10.50;90.30;;;;;;9176002;19;20141;-69
2022/12/29 08:25:37;;;;;;;9.95;1.20;;;10.50;90.30;;;;;;9182130;19;20023;-69
2022/12/29 08:28:41;;;;;;;9.80;1.58;;;10.50;90.30;;;;;;9181095;19;20026;-69
2022/12/29 08:31:46;;;;;;;6.95;1.55;;;10.50;90.30;;;;;;9184426;19;20014;-70
2022/12/29 08:34:51;;;;;;;5.47;1.15;;;10.50;90.30;;;;;;9183526;19;20746;-70
2022/12/29 08:37:55;;;;;;;5.80;0.90;;;10.40;90.30;;;;;;9182248;19;20033;-69
2022/12/29 08:41:00;;;;;;;10.00;2.28;;;10.40;90.30;;;;;;9182731;19;20027;-69
2022/12/29 08:44:04;;;;;;;3.67;1.23;;;10.40;90.30;;;;;;9180695;19;20027;-69
2022/12/29 08:47:08;;;;;;;7.68;1.42;;;10.30;90.30;;;;;;9175730;19;20017;-69
2022/12/29 08:50:14;;;;;;;5.55;1.33;;;10.30;90.30;;;;;;9179074;19;20018;-68
2022/12/29 08:53:18;;;;;;;6.57;0.90;;;10.30;90.40;;;;;;9176346;19;20510;-67
2022/12/29 08:56:23;;;;;;;9.98;1.38;;;10.30;90.40;;;;;;9174757;19;20384;-69
2022/12/29 08:59:30;;;;;;;12.48;1.70;;;10.20;90.30;;;;;;9175448;19;20040;-69
2022/12/29 09:02:34;;;;;;;4.43;1.30;;;10.20;90.30;;;;;;9176614;19;20027;-69
2022/12/29 09:05:40;;;;;;;5.13;1.05;;;10.20;90.40;;;;;;9171677;19;20044;-69
2022/12/29 09:08:44;;;;;;;10.57;1.50;;;10.20;90.70;;;;;;9176109;19;20018;-69
2022/12/29 09:11:48;;;;;;;7.05;1.58;;;10.20;90.40;;;;;;9179058;19;20022;-70
2022/12/29 09:14:51;;;;;;;;;;;10.20;90.40;;;;;;9175393;19;20022;-69
2022/12/29 09:17:55;;;;;;;12.82;1.75;;;10.20;90.40;;;;;;9174106;19;19954;-67
2022/12/29 09:21:03;;;;;;;9.65;1.60;;;10.20;90.40;;;;;;9172291;19;20017;-69
2022/12/29 09:24:07;;;;;;;12.90;1.52;;;10.20;90.40;;;;;;9168861;19;20413;-68
2022/12/29 09:27:11;;;;;;;21.88;2.00;;;10.20;90.50;;;;;;9169372;19;20026;-69
2022/12/29 09:30:17;;;;;;;6.25;1.35;;;10.20;90.40;;;;;;9169219;19;20055;-69
2022/12/29 09:33:21;;;;;;;14.52;1.70;;;10.20;90.50;;;;;;9165393;19;20028;-69
2022/12/29 09:36:26;;;;;;;15.27;2.22;;;10.20;90.40;;;;;;9165750;19;20011;-69
2022/12/29 09:39:30;;;;;;;15.48;1.80;;;10.20;90.40;;;;;;9161589;19;20022;-68
2022/12/29 09:42:40;;;;;;;5.75;1.33;;;10.30;90.40;;;;;;9172895;19;20027;-69
2022/12/29 09:45:47;;;;;;;12.40;1.50;;;10.30;90.40;;;;;;9171703;19;20014;-70
2022/12/29 09:48:57;;;;;;;9.43;1.80;;;10.30;90.30;;;;;;9161722;19;20014;-69
2022/12/29 09:52:08;;;;;;;10.25;2.40;;;10.40;90.30;;;;;;9170913;19;20131;-67
2022/12/29 09:55:17;;;;;;;16.25;1.75;;;10.40;90.30;;;;;;9164047;19;20022;-73
2022/12/29 09:58:29;;;;;;;11.60;1.65;;;10.40;90.30;;;;;;9165196;19;20105;-69
2022/12/29 10:01:38;;;;;;;8.82;1.50;;;10.40;90.20;;;;;;9165347;19;20026;-67
2022/12/29 10:04:43;;;;;;;12.07;1.48;;;10.40;90.20;;;;;;9156773;19;20543;-69
2022/12/29 10:07:56;;;;;;;10.10;1.67;;;10.50;90.20;;;;;;9154609;19;20018;-69
2022/12/29 10:11:09;;;;;;;8.32;1.45;;;10.50;90.20;;;;;;9160146;19;20039;-67
2022/12/29 10:14:30;;;;;;;7.97;1.60;;;10.50;90.20;;;;;;9170102;19;20047;-69
2022/12/29 10:17:44;;;;;;;13.05;2.63;;;10.50;90.20;;;;;;9166653;19;20006;-69
2022/12/29 10:20:54;;;;;;;14.00;2.60;;;10.50;90.20;;;;;;9171202;19;20021;-70
2022/12/29 10:24:03;;;;;;;12.23;1.50;;;10.60;90.20;;;;;;9167359;19;20521;-71
2022/12/29 10:27:11;;;;;;;12.52;1.92;;;10.60;90.20;;;;;;9170583;19;20007;-69
2022/12/29 10:30:16;;;;;;;10.57;1.38;;;10.60;90.10;;;;;;9165558;19;20365;-69
2022/12/29 10:33:26;;;;;;;12.20;2.08;;;10.60;90.10;;;;;;9168652;19;20014;-69
2022/12/29 10:36:36;;;;;;;10.52;1.63;;;10.60;90.10;;;;;;9168778;19;20022;-69
2022/12/29 10:39:47;;;;;;;10.70;1.67;;;10.70;90.10;;;;;;9173041;19;20014;-69
2022/12/29 10:42:55;;;;;;;11.73;1.85;;;10.70;90.00;;;;;;9167675;19;20018;-70
2022/12/29 10:46:03;;;;;;;14.55;1.98;;;10.70;90.00;;;;;;9163301;19;20483;-69
2022/12/29 10:49:16;;;;;;;11.98;2.30;;;10.80;90.00;;;;;;9175368;19;20334;-70
2022/12/29 10:52:26;;;;;;;14.57;1.83;;;10.80;90.00;;;;;;9174507;19;20590;-70
2022/12/29 10:55:37;;;;;;;10.65;2.33;;;10.90;90.00;;;;;;9175903;19;20015;-70
2022/12/29 10:58:42;;;;;;;6.63;1.25;;;10.90;90.00;;;;;;9165652;19;20419;-69
2022/12/29 11:02:00;;;;;;;6.18;1.40;;;10.90;90.00;;;;;;9168438;19;20033;-69
2022/12/29 11:05:09;;;;;;;5.35;1.02;;;10.90;89.90;;;;;;9162723;19;20015;-68
2022/12/29 11:08:16;;;;;;;6.68;1.25;;;10.90;89.90;;;;;;9171277;19;20770;-69
2022/12/29 11:11:28;;;;;;;13.73;1.77;;;10.90;89.80;;;;;;9162831;19;20015;-69
2022/12/29 11:14:34;;;;;;;7.63;1.23;;;10.90;89.80;;;;;;9164336;19;20018;-69
2022/12/29 11:17:46;;;;;;;11.40;1.58;;;10.90;89.80;;;;;;9160472;19;20029;-69
2022/12/29 11:20:51;;;;;;;5.13;1.30;;;10.90;89.80;;;;;;9156603;19;20014;-71
2022/12/29 11:23:59;;;;;;;5.28;1.20;;;10.90;89.70;;;;;;9152110;19;20877;-68
2022/12/29 11:27:17;;;;;;;3.63;1.15;;;10.90;89.80;;;;;;9168521;19;20019;-69
2022/12/29 11:30:26;;;;;;;6.00;1.85;;;10.90;89.70;;;;;;9169550;19;20022;-69
2022/12/29 11:33:30;;;;;;;7.22;2.08;;;10.90;89.70;;;;;;9166542;19;20045;-70
2022/12/29 11:36:35;;;;;;;;;;;10.90;89.80;;;;;;9176599;19;20344;-69
2022/12/29 11:39:42;;;;;;;5.05;1.27;;;10.90;89.80;;;;;;9172986;19;19949;-69
2022/12/29 11:42:54;;;;;;;6.78;1.35;;;10.90;89.80;;;;;;9168136;19;20021;-70
2022/12/29 11:45:58;;;;;;;7.72;1.23;;;10.90;89.80;;;;;;9175270;19;20015;-69
2022/12/29 11:49:04;;;;;;;10.27;1.40;;;10.90;89.80;;;;;;9173968;19;20019;-69
2022/12/29 11:52:09;;;;;;;6.47;1.40;;;10.90;90.20;;;;;;9173065;19;20025;-70
2022/12/29 11:55:21;;;;;;;8.07;1.60;;;10.80;89.80;;;;;;9171358;19;20015;-69
2022/12/29 11:58:34;;;;;;;5.05;1.15;;;10.80;89.80;;;;;;9171095;19;20550;-70
2022/12/29 12:01:40;;;;;;;10.85;1.77;;;10.80;89.80;;;;;;9173110;19;20027;-69
2022/12/29 12:04:44;;;;;;;5.85;1.42;;;10.80;89.90;;;;;;9171375;19;20017;-70
2022/12/29 12:07:51;;;;;;;4.18;1.10;;;10.80;89.90;;;;;;9174076;19;20018;-70
2022/12/29 12:11:00;;;;;;;9.80;1.50;;;10.80;90.00;;;;;;9172714;19;20018;-71
2022/12/29 12:14:11;;;;;;;7.32;1.58;;;10.80;89.90;;;;;;9172058;19;20694;-68
2022/12/29 12:17:42;;;;;;;10.95;1.88;;;10.80;89.90;;;;;;9170544;19;20007;-70
2022/12/29 12:20:50;;;;;;;8.85;1.60;;;10.80;89.90;;;;;;9173042;19;20022;-70
2022/12/29 12:24:18;;;;;;;9.90;2.45;;;10.80;89.90;;;;;;9176510;19;20019;-72
2022/12/29 12:27:26;;;;;;;10.95;1.90;;;10.80;89.80;;;;;;9166277;19;20022;-71
2022/12/29 12:30:39;;;;;;;9.75;2.28;;;10.80;89.90;;;;;;9170292;19;20022;-71
2022/12/29 12:33:47;;;;;;;14.07;2.22;;;10.80;89.90;;;;;;9164403;19;20487;-70
2022/12/29 12:37:23;;;;;;;7.50;2.03;;;10.80;89.90;;;;;;9173473;19;20021;-71
2022/12/29 12:48:31;;;;;;;15.73;2.10;;;10.80;89.70;;;;;;9108159;19;20557;-70
2022/12/29 12:51:47;;;;;;;11.50;1.90;;;10.80;89.70;;;;;;9149091;19;20631;-64
2022/12/29 12:55:15;;;;;;;13.30;2.60;;;10.80;89.70;;;;;;9177585;19;20895;-65
2022/12/29 12:58:29;;;;;;;11.25;2.10;;;10.80;89.70;;;;;;9178144;19;20011;-64
2022/12/29 13:01:44;;;;;;;18.55;3.03;;;10.80;89.70;;;;;;9175170;19;20011;-65
2022/12/29 13:05:01;;;;;;;5.70;1.73;;;10.80;89.80;;;;;;9170702;19;20025;-65
2022/12/29 13:08:30;;;;;;;14.07;2.45;;;10.70;89.60;;;;;;9169446;19;20074;-67
2022/12/29 13:11:47;;;;;;;12.68;1.73;;;10.70;89.50;;;;;;9171075;19;20015;-64
2022/12/29 13:15:03;;;;;;;8.45;2.30;;;10.70;89.60;;;;;;9171979;19;20025;-63
2022/12/29 13:18:15;;;;;;;7.90;1.52;;;10.70;89.60;;;;;;9173274;19;20082;-63
2022/12/29 13:21:36;;;;;;;6.80;2.00;;;10.70;89.60;;;;;;9171759;19;20010;-67
2022/12/29 13:24:52;;;;;;;6.57;1.67;;;10.70;89.50;;;;;;9174026;19;20048;-63
2022/12/29 13:28:02;;;;;;;9.50;2.03;;;10.70;89.50;;;;;;9178083;19;20471;-63
2022/12/29 13:31:17;;;;;;;7.05;2.10;;;10.70;89.50;;;;;;9178355;19;20044;-63
2022/12/29 13:34:34;;;;;;;8.25;2.33;;;10.60;89.30;;;;;;9174904;19;20033;-65
2022/12/29 13:37:49;;;;;;;9.20;2.63;;;10.60;89.30;;;;;;9180316;19;20039;-64
2022/12/29 13:40:56;;;;;;;9.93;1.75;;;10.60;89.30;;;;;;9177868;19;20402;-63
2022/12/29 13:44:02;;;;;;;11.65;2.33;;;10.60;89.40;;;;;;9170851;19;20489;-64
2022/12/29 13:47:16;;;;;;;14.93;2.25;;;10.60;89.40;;;;;;9173182;19;20054;-67
2022/12/29 13:50:22;;;;;;;4.47;2.22;;;10.60;89.30;;;;;;9169570;19;20018;-64
2022/12/29 13:53:36;;;;;;;10.32;2.38;;;10.60;89.30;;;;;;9175565;19;20043;-63
2022/12/29 13:56:44;;;;;;;11.55;3.15;;;10.60;89.20;;;;;;9169531;19;20498;-63
2022/12/29 13:59:56;;;;;;;7.90;2.63;;;10.60;89.30;;;;;;9166249;19;20469;-64
2022/12/29 14:03:19;;;;;;;14.85;2.97;;;10.60;89.20;;;;;;9170542;19;20022;-65
2022/12/29 14:06:31;;;;;;;13.75;2.60;;;10.60;89.30;;;;;;9168301;19;20019;-67
2022/12/29 14:09:56;;;;;;;17.20;2.33;;;10.60;89.30;;;;;;9170226;19;20054;-63
2022/12/29 14:13:06;;;;;;;13.48;2.63;;;10.70;89.40;;;;;;9173691;19;20058;-63
2022/12/29 14:16:29;;;;;;;9.00;2.53;;;10.60;89.20;;;;;;9172728;19;20017;-66
2022/12/29 14:19:35;;;;;;;15.70;3.10;;;10.60;89.20;;;;;;9169802;19;20014;-65
2022/12/29 14:22:58;;;;;;;19.02;3.55;;;10.60;89.20;;;;;;9173914;19;20060;-62
2022/12/29 14:26:13;;;;;;;13.98;2.80;;;10.70;89.20;;;;;;9170241;19;20455;-66
2022/12/29 14:29:39;;;;;;;16.92;4.75;;;10.60;89.20;;;;;;9171559;19;20017;-66
2022/12/29 14:33:03;;;;;;;20.67;3.47;;;10.70;89.20;;;;;;9171933;19;20026;-64
2022/12/29 14:36:35;;;;;;;12.68;3.05;;;10.70;89.20;;;;;;9178442;19;20010;-62
2022/12/29 14:39:41;;;;;;;20.77;3.63;;;10.70;89.10;;;;;;9178775;19;20025;-63
2022/12/29 14:42:54;;;;;;;8.25;2.80;;;10.70;89.20;;;;;;9220185;19;20051;-65
2022/12/29 14:46:02;;;;;;;14.07;2.67;;;10.70;89.20;;;;;;9221096;19;20014;-65
2022/12/29 14:49:06;;;;;;;19.50;3.05;;;10.70;89.10;;;;;;9213907;19;20043;-66
2022/12/29 14:52:19;;;;;;;17.58;3.60;;;10.70;89.10;;;;;;9221389;19;20022;-65
2022/12/29 14:55:40;;;;;;;17.17;3.10;;;10.70;89.00;;;;;;9221170;19;20014;-64
2022/12/29 14:58:53;;;;;;;15.95;2.60;;;10.70;89.00;;;;;;9216802;19;20006;-64
2022/12/29 15:01:58;;;;;;;15.37;3.03;;;10.70;89.00;;;;;;9217434;19;20026;-62
2022/12/29 15:05:04;;;;;;;23.15;3.22;;;10.70;89.10;;;;;;9220492;19;20010;-65
2022/12/29 15:08:09;;;;;;;14.27;2.88;;;10.70;89.10;;;;;;9216995;19;20570;-64
2022/12/29 15:11:17;;;;;;;8.48;2.65;;;10.70;89.10;;;;;;9217641;19;20010;-65
2022/12/29 15:14:50;;;;;;;12.32;2.55;;;10.70;89.10;;;;;;9219487;19;20011;-65
2022/12/29 15:17:55;;;;;;;14.80;2.78;;;10.70;88.90;;;;;;9217568;19;20052;-64
2022/12/29 15:21:01;;;;;;;16.38;3.50;;;10.70;89.00;;;;;;9218892;19;20485;-65
2022/12/29 15:24:06;;;;;;;19.17;3.50;;;10.70;88.90;;;;;;9218331;19;20022;-64
2022/12/29 15:27:16;;;;;;;12.13;3.00;;;10.60;88.90;;;;;;9218398;19;20070;-67
2022/12/29 15:30:22;;;;;;;19.10;3.10;;;10.60;88.80;;;;;;9217292;19;20022;-64
2022/12/29 15:33:29;;;;;;;12.32;2.90;;;10.60;88.80;;;;;;9214910;19;20018;-64
2022/12/29 15:36:40;;;;;;;16.27;2.80;;;10.60;88.80;;;;;;9216950;19;20018;-66
2022/12/29 15:39:44;;;;;;;8.90;1.65;;;10.60;88.80;;;;;;9216408;19;20037;-64
2022/12/29 15:42:58;;;;;;;7.20;2.03;;;10.60;88.70;;;;;;9214247;19;20010;-65
2022/12/29 15:46:05;;;;;;;9.13;1.88;;;10.60;88.60;;;;;;9219860;19;20014;-64
2022/12/29 15:49:10;;;;;;;9.20;1.60;;;10.60;88.60;;;;;;9209676;19;20007;-64
2022/12/29 15:52:20;;;;;;;8.88;1.65;;;10.50;88.50;;;;;;9202023;19;20014;-65
2022/12/29 15:55:30;;;;;;;6.40;1.92;;;10.50;88.50;;;;;;9181953;19;20021;-63
2022/12/29 15:58:44;;;;;;;6.25;1.65;;;10.50;88.60;;;;;;9182119;19;20628;-64
2022/12/29 16:01:50;;;;;;;32.30;12.52;;;10.50;88.50;;;;;;9181103;19;20018;-63
2022/12/29 16:04:54;;;;;;;9.27;2.03;;;10.50;88.50;;;;;;9178267;19;20022;-65
2022/12/29 16:08:29;;;;;;;3.20;1.33;;;10.50;88.50;;;;;;9179049;19;21233;-64
2022/12/29 16:11:36;;;;;;;3.47;1.23;;;10.50;88.50;;;;;;9179770;19;20010;-65
2022/12/29 16:14:44;;;;;;;1.75;1.30;;;10.40;88.50;;;;;;9176668;19;20048;-64
2022/12/29 16:17:53;;;;;;;4.95;1.95;;;10.40;89.10;;;;;;9178931;19;20018;-64
2022/12/29 16:20:58;;;;;;;5.43;1.90;;;10.40;88.50;;;;;;9178439;19;20462;-63
2022/12/29 16:24:04;;;;;;;10.10;2.00;;;10.40;88.50;;;;;;9172248;19;20018;-63
2022/12/29 16:27:11;;;;;;;6.70;1.42;;;10.30;88.50;;;;;;9179849;19;20340;-67
2022/12/29 16:30:23;;;;;;;8.30;2.05;;;10.30;88.50;;;;;;9180218;19;20088;-63
2022/12/29 16:33:47;;;;;;;5.28;1.67;;;10.30;88.50;;;;;;9174006;19;20613;-64
2022/12/29 16:36:56;;;;;;;10.27;1.73;;;10.20;88.50;;;;;;9172130;19;20023;-63
2022/12/29 16:40:28;;;;;;;8.38;2.00;;;10.20;88.60;;;;;;9171780;19;20019;-63
2022/12/29 16:43:34;;;;;;;11.00;2.20;;;10.20;88.60;;;;;;9170790;19;20370;-62
2022/12/29 16:46:43;;;;;;;9.27;2.30;;;10.20;88.60;;;;;;9165974;19;20029;-65
2022/12/29 16:49:52;;;;;;;7.68;2.00;;;10.20;88.60;;;;;;9167821;19;20726;-64
2022/12/29 16:52:56;;;;;;;8.60;2.00;;;10.10;88.60;;;;;;9171347;19;20794;-67
2022/12/29 16:56:07;;;;;;;9.55;1.80;;;10.20;88.80;;;;;;9167274;19;20048;-66
2022/12/29 16:59:34;;;;;;;6.50;2.33;;;10.10;89.30;;;;;;9169210;19;20026;-64
2022/12/29 17:02:44;;;;;;;10.23;3.63;;;10.10;88.70;;;;;;9167404;19;20445;-65
2022/12/29 17:05:49;;;;;;;5.05;2.15;;;10.10;88.80;;;;;;9168464;19;20470;-65